Estación Meteorológica Peña el Pijo (Robertgarden) [ 11/16/19 01:55:26 CET ]

Fecha Hora Presion(HPa) Temp (°C) Humedad % Rocio (°C) Viento ( m/s) Direccion Lluvia 1Hora(mm) Lluvia 24H(mm) LLuvia Total(mm)
2019-Jul-31 01:01:50 1010.100 19.6 68 13.5         344.18
2019-Jul-31 02:01:39 1010.100 18.5 72 13.4         344.18
2019-Jul-31 03:02:21 1010.300 18.2 75 13.7         344.18
2019-Jul-31 04:02:06 1010.600 16.8 77 12.7         344.18
2019-Jul-31 05:03:09 1010.200 15.6 79 12.0         344.18
2019-Jul-31 06:01:46 1009.700 15.4 81 12.2         344.18
2019-Jul-31 07:01:57 1009.700 15.0 82 12.0         344.18
2019-Jul-31 08:01:49 1010.200 15.0 83 12.1         344.18
2019-Jul-31 09:01:46 1010.500 18.0 78 14.1         344.18
2019-Jul-31 10:01:48 1010.400 21.3 65 14.4         344.18
2019-Jul-31 11:01:43 1010.400 24.8 44 11.7 2.5 W     344.18
2019-Jul-31 12:01:38 1010.500 24.6 49 13.2 2.9 SW     344.18
2019-Jul-31 13:01:34 1009.900 24.2 47 12.2 0.6 SSW     344.18
2019-Jul-31 14:01:53 1010.400 24.6 50 13.5 0.5 SW     344.18
2019-Jul-31 15:01:37 1009.500 29.8 44 16.2         344.18
2019-Jul-31 16:01:55 1009.200 30.4 41 15.7         344.18
2019-Jul-31 17:01:34 1008.500 30.9 38 14.9         344.18
2019-Jul-31 18:01:49 1008.100 30.4 39 14.9         344.18
2019-Jul-31 19:01:41 1007.800 28.8 39 13.5 1.8 SW     344.18
2019-Jul-31 20:01:41 1008.200 26.1 41 11.8 0.5 SW     344.18
2019-Jul-31 21:01:28 1008.800 23.3 44 10.3         344.18
2019-Jul-31 22:01:44 1009.600 21.5 42 8.0         344.18
2019-Jul-31 23:01:38 1009.900 20.7 45 8.3         344.18

Temperatura Máxima:30°    Temperatura Mínima:15°
Presión Máxima:1010.600 Hpa    Presión Mínima:1007.800 Hpa


Volver